Terminal Aerodrome Forecast
Issued by NWS

Home | Current Version | Previous Version | Graphics & Text | Print | Product List | Glossary On
Versions: 1 2 3 4 5 6 7 8 9 10 11 12 13 14 15 16 17 18 19 20 21 22 23
000
FTUS43 KBIS 260500
TAFJMS
TAF
KJMS 260521Z 2606/2706 20006KT P6SM SKC
     FM261300 27009KT P6SM SKC
     FM261600 29015G25KT P6SM SKC
     FM261900 28022G32KT P6SM SCT050 BKN080
     FM270200 30015KT P6SM BKN050=

USA.gov is the U.S. government's official web portal to all federal, state and local government web resources and services.